Time;durP1;ratioP1;P1;durP2;ratioP2;P2;SDS_P1;SDS_P2;PMS_P1;PMS_P2;Temp;Humidity;BMP_temperature;BMP_pressure;BME280_temperature;BME280_humidity;BME280_pressure;Samples;Min_cycle;Max_cycle;Signal;HPM_P1;HPM_P2
2021/11/07 05:18:27;;;;;;;;;;;;;;;12.53;88.38;100796.88;5599859;23;1644;-60
2021/11/07 05:20:54;;;;;;;;;;;;;;;12.56;88.17;100792.50;4994413;28;862;-59
2021/11/07 05:23:21;;;;;;;;;;;;;;;12.56;88.28;100789.72;4994469;28;855;-59
2021/11/07 05:25:48;;;;;;;;;;;;;;;12.57;88.09;100794.13;4994317;28;803;-60
2021/11/07 05:28:15;;;;;;;;;;;;;;;12.56;88.25;100789.72;4994435;28;826;-60
2021/11/07 05:30:42;;;;;;;;;;;;;;;12.53;88.28;100798.84;4994216;28;1927;-59
2021/11/07 05:33:08;;;;;;;;;;;;;;;12.54;88.36;100794.88;4994238;28;865;-60
2021/11/07 05:35:34;;;;;;;;;;;;;;;12.55;88.47;100802.81;4994459;28;873;-60
2021/11/07 05:38:01;;;;;;;;;;;;;;;12.61;88.45;100805.97;4994146;28;839;-59
2021/11/07 05:40:27;;;;;;;;;;;;;;;12.65;88.42;100804.81;4994112;28;855;-60
2021/11/07 05:42:54;;;;;;;;;;;;;;;12.73;88.29;100802.06;4994082;28;830;-60
2021/11/07 05:45:20;;;;;;;;;;;;;;;12.76;88.15;100801.25;4992842;28;823;-59
2021/11/07 05:47:50;;;;;;;;;;;;;;;12.77;88.10;100794.53;4993838;28;879;-60
2021/11/07 05:50:17;;;;;;;;;;;;;;;12.81;88.19;100789.78;4993927;28;1953;-60
2021/11/07 05:52:43;;;;;;;;;;;;;;;12.84;88.03;100803.69;4993909;28;787;-59
2021/11/07 05:55:11;;;;;;;;;;;;;;;12.85;87.86;100807.25;4993859;28;819;-59
2021/11/07 05:57:38;;;;;;;;;;;;;;;12.87;88.15;100808.44;4993877;28;843;-59
2021/11/07 06:00:06;;;;;;;;;;;;;;;12.91;87.90;100802.09;4993843;28;858;-59
2021/11/07 06:02:32;;;;;;;;;;;;;;;12.95;87.82;100797.34;4993655;28;812;-59
2021/11/07 06:04:59;;;;;;;;;;;;;;;12.99;87.58;100798.91;4993647;28;850;-60
2021/11/07 06:07:25;;;;;;;;;;;;;;;13.01;87.55;100804.88;4993624;28;811;-59
2021/11/07 06:09:52;;;;;;;;;;;;;;;13.01;87.42;100802.09;4975813;28;2478;-59
2021/11/07 06:12:18;;;;;;;;;;;;;;;13.06;87.29;100803.72;4993491;28;894;-59
2021/11/07 06:14:44;;;;;;;;;;;;;;;13.13;87.01;100803.69;4993497;28;878;-59
2021/11/07 06:17:12;;;;;;;;;;;;;;;13.19;87.03;100795.78;4993304;28;868;-59
2021/11/07 06:19:39;;;;;;;;;;;;;;;13.17;86.96;100798.94;4979399;28;1232;-60
2021/11/07 06:22:05;;;;;;;;;;;;;;;13.16;86.74;100810.44;4973695;28;859;-59
2021/11/07 06:24:32;;;;;;;;;;;;;;;13.17;86.85;100801.72;4973927;28;827;-60
2021/11/07 06:27:00;;;;;;;;;;;;;;;13.14;86.41;100804.50;4973741;28;891;-59
2021/11/07 06:29:26;;;;;;;;;;;;;;;13.11;86.68;100806.09;4973511;28;2064;-60
2021/11/07 06:31:54;;;;;;;;;;;;;;;13.16;86.75;100808.44;4973636;28;862;-60
2021/11/07 06:34:21;;;;;;;;;;;;;;;13.16;86.25;100802.91;4973547;28;827;-60
2021/11/07 06:36:49;;;;;;;;;;;;;;;13.15;86.16;100792.22;4973603;28;875;-60
2021/11/07 06:39:15;;;;;;;;;;;;;;;13.17;86.30;100798.94;4973540;28;845;-59
2021/11/07 06:41:44;;;;;;;;;;;;;;;13.19;86.25;100793.00;4973496;28;808;-60
2021/11/07 06:44:11;;;;;;;;;;;;;;;13.23;86.21;100783.50;4973432;28;855;-59
2021/11/07 06:46:37;;;;;;;;;;;;;;;13.18;85.98;100778.31;4973385;28;875;-59
2021/11/07 06:49:07;;;;;;;;;;;;;;;13.12;86.16;100782.69;4973340;28;1950;-59
2021/11/07 06:51:33;;;;;;;;;;;;;;;13.12;86.19;100777.16;4973358;28;870;-59
2021/11/07 06:54:00;;;;;;;;;;;;;;;13.15;86.01;100784.69;4973434;28;882;-60
2021/11/07 06:56:27;;;;;;;;;;;;;;;13.14;85.84;100776.72;4972950;28;823;-59
2021/11/07 06:58:56;;;;;;;;;;;;;;;13.13;86.09;100781.50;4973085;28;860;-60
2021/11/07 07:01:23;;;;;;;;;;;;;;;13.08;86.32;100784.69;4973007;28;775;-59
2021/11/07 07:03:50;;;;;;;;;;;;;;;13.07;86.32;100788.63;4973105;28;859;-59
2021/11/07 07:06:17;;;;;;;;;;;;;;;13.05;86.27;100789.00;4973087;28;803;-60
2021/11/07 07:08:45;;;;;;;;;;;;;;;13.12;86.33;100790.22;4973032;28;1949;-59
2021/11/07 07:11:15;;;;;;;;;;;;;;;13.18;86.48;100788.63;4972922;28;867;-59
2021/11/07 07:14:20;;;;;;;;;;;;;;;13.18;86.33;100786.66;4972998;28;858;-59
2021/11/07 07:16:42;;;;;;;;;;;;;;;13.15;86.28;100779.13;4970888;28;1125;-59
2021/11/07 07:27:26;;;;;;;;;;;;;;;13.04;86.80;100767.22;4972894;28;629;-59
2021/11/07 07:35:26;;;;;;;;;;;;;;;13.16;86.59;100766.81;4972727;28;689;-59
2021/11/07 07:37:54;;;;;;;;;;;;;;;13.16;86.62;100758.50;4972827;28;823;-59
2021/11/07 07:40:22;;;;;;;;;;;;;;;13.19;86.72;100763.25;4973264;28;893;-60
2021/11/07 07:42:48;;;;;;;;;;;;;;;13.23;86.82;100777.94;4972992;28;839;-59
2021/11/07 07:45:15;;;;;;;;;;;;;;;13.25;86.65;100775.56;4972693;28;843;-60
2021/11/07 07:47:43;;;;;;;;;;;;;;;13.29;86.65;100772.78;4972658;28;856;-59
2021/11/07 07:50:11;;;;;;;;;;;;;;;13.36;86.60;100763.69;4972712;28;1945;-60
2021/11/07 07:52:38;;;;;;;;;;;;;;;13.42;86.56;100757.34;4972727;28;878;-60
2021/11/07 07:55:07;;;;;;;;;;;;;;;13.47;86.38;100754.13;4972724;28;792;-60
2021/11/07 07:57:33;;;;;;;;;;;;;;;13.50;86.22;100754.53;4972570;28;792;-59
2021/11/07 08:00:00;;;;;;;;;;;;;;;13.55;86.22;100751.34;4972608;28;795;-60
2021/11/07 08:02:26;;;;;;;;;;;;;;;13.65;86.18;100751.31;4972923;28;811;-60
2021/11/07 08:04:53;;;;;;;;;;;;;;;13.82;86.04;100746.13;4972872;28;815;-60
2021/11/07 08:07:19;;;;;;;;;;;;;;;13.92;85.51;100738.94;4973256;28;820;-60
2021/11/07 08:09:46;;;;;;;;;;;;;;;13.81;nan;100737.00;4976420;28;1882;-60
2021/11/07 08:12:12;;;;;;;;;;;;;;;13.72;84.90;100738.59;4976369;28;854;-60
2021/11/07 08:14:39;;;;;;;;;;;;;;;13.74;85.04;100736.22;4976202;28;883;-60
2021/11/07 08:17:06;;;;;;;;;;;;;;;13.78;84.76;100734.22;4976440;28;984;-60
2021/11/07 08:19:32;;;;;;;;;;;;;;;13.79;84.61;100733.81;4975872;28;1202;-59
2021/11/07 08:21:59;;;;;;;;;;;;;;;13.84;84.65;100722.28;4975957;28;835;-60
2021/11/07 08:24:26;;;;;;;;;;;;;;;13.87;84.39;100726.28;4975940;28;823;-60
2021/11/07 08:26:53;;;;;;;;;;;;;;;13.91;84.56;100724.25;4975967;28;895;-60
2021/11/07 08:29:20;;;;;;;;;;;;;;;13.98;84.16;100727.00;4975851;28;1964;-60
2021/11/07 08:31:51;;;;;;;;;;;;;;;14.00;84.07;100727.41;4975741;28;855;-60
2021/11/07 08:34:21;;;;;;;;;;;;;;;14.11;83.94;100729.34;4975930;28;823;-60
2021/11/07 08:36:57;;;;;;;;;;;;;;;14.16;83.62;100726.91;4975712;28;831;-60
2021/11/07 08:39:28;;;;;;;;;;;;;;;14.20;83.27;100727.69;4975762;28;816;-60
2021/11/07 09:00:56;;;;;;;;;;;;;;;14.17;82.80;100695.16;4975612;28;682;-59
2021/11/07 09:06:40;;;;;;;;;;;;;;;14.28;82.94;100692.31;4959787;28;1062;-60
2021/11/07 09:09:12;;;;;;;;;;;;;;;14.36;82.59;100690.25;4975111;28;1898;-60
2021/11/07 09:11:41;;;;;;;;;;;;;;;14.32;82.67;100678.38;4975473;28;898;-60
2021/11/07 09:14:07;;;;;;;;;;;;;;;14.23;82.84;100689.94;4975000;28;823;-60
2021/11/07 09:16:33;;;;;;;;;;;;;;;14.19;82.80;100678.03;4975126;28;815;-60
2021/11/07 09:19:01;;;;;;;;;;;;;;;14.10;82.90;100678.50;4974733;28;1273;-60
2021/11/07 09:21:33;;;;;;;;;;;;;;;14.09;83.11;100666.59;4975021;28;870;-60
2021/11/07 09:24:06;;;;;;;;;;;;;;;14.15;83.06;100671.75;4975144;28;823;-60
2021/11/07 09:26:40;;;;;;;;;;;;;;;14.25;82.87;100655.00;4957496;28;874;-60
2021/11/07 09:29:24;;;;;;;;;;;;;;;14.33;82.47;100652.16;4974785;28;1919;-60
2021/11/07 09:36:59;;;;;;;;;;;;;;;14.42;82.13;100638.56;4974686;28;669;-60
2021/11/07 09:42:26;;;;;;;;;;;;;;;14.34;82.18;100632.28;4974637;28;681;-60
2021/11/07 09:44:54;;;;;;;;;;;;;;;14.21;82.49;100633.94;4974304;28;1497;-60
2021/11/07 09:47:24;;;;;;;;;;;;;;;14.12;82.42;100628.06;4974390;28;815;-60
2021/11/07 09:49:51;;;;;;;;;;;;;;;13.97;82.79;100632.91;4974388;28;1934;-60
2021/11/07 09:52:24;;;;;;;;;;;;;;;13.91;83.07;100631.75;4975190;28;808;-60
2021/11/07 09:55:00;;;;;;;;;;;;;;;13.87;83.28;100629.78;4974300;28;1152;-60
2021/11/07 09:57:27;;;;;;;;;;;;;;;13.90;83.42;100636.53;4956846;28;1340;-60
2021/11/07 09:59:57;;;;;;;;;;;;;;;13.94;83.42;100617.06;4974269;28;851;-60
2021/11/07 10:02:28;;;;;;;;;;;;;;;13.95;83.38;100616.63;4974169;28;862;-60
2021/11/07 10:04:57;;;;;;;;;;;;;;;13.99;83.30;100609.06;4974534;28;870;-60
2021/11/07 10:07:27;;;;;;;;;;;;;;;14.04;83.40;100608.66;4974168;28;811;-60
2021/11/07 10:09:56;;;;;;;;;;;;;;;14.14;83.42;100609.00;4973913;28;1919;-60
2021/11/07 10:12:47;;;;;;;;;;;;;;;14.22;82.94;100608.53;4974056;28;831;-60
2021/11/07 10:15:49;;;;;;;;;;;;;;;14.29;82.94;100599.34;4974368;28;898;-60
2021/11/07 10:18:29;;;;;;;;;;;;;;;14.35;82.52;100597.72;4973964;28;1338;-60
2021/11/07 10:20:59;;;;;;;;;;;;;;;14.46;82.47;100586.50;4973912;28;867;-60
2021/11/07 10:23:37;;;;;;;;;;;;;;;14.64;81.99;100581.59;4973658;28;859;-60
2021/11/07 10:26:25;;;;;;;;;;;;;;;14.79;81.54;100576.69;4973797;28;886;-60
2021/11/07 10:28:55;;;;;;;;;;;;;;;14.83;80.63;100569.09;4973705;28;1978;-60
2021/11/07 10:31:59;;;;;;;;;;;;;;;14.81;80.35;100557.59;4973238;28;823;-59
2021/11/07 10:53:28;;;;;;;;;;;;;;;14.82;79.91;100542.47;4973708;28;630;-60
2021/11/07 10:55:56;;;;;;;;;;;;;;;14.85;80.12;100530.53;4973057;28;882;-60
2021/11/07 10:58:27;;;;;;;;;;;;;;;14.85;79.82;100522.19;4973292;28;795;-60
2021/11/07 11:00:54;;;;;;;;;;;;;;;14.82;80.07;100522.22;4973992;28;783;-60
2021/11/07 11:03:22;;;;;;;;;;;;;;;14.86;79.82;100523.75;4973463;28;1266;-60
2021/11/07 11:05:54;;;;;;;;;;;;;;;14.92;79.84;100512.16;4973948;28;866;-60
2021/11/07 11:08:26;;;;;;;;;;;;;;;14.94;79.55;100512.53;4972974;28;871;-60
2021/11/07 11:11:13;;;;;;;;;;;;;;;15.02;79.26;100500.09;4973011;28;1882;-60
2021/11/07 11:13:56;;;;;;;;;;;;;;;15.13;78.76;100486.03;4972931;28;874;-60
2021/11/07 11:22:00;;;;;;;;;;;;;;;15.26;78.31;100493.44;4972818;28;824;-60
2021/11/07 11:27:08;;;;;;;;;;;;;;;15.34;77.54;100487.75;4972859;28;740;-60
2021/11/07 11:32:41;;;;;;;;;;;;;;;15.51;77.54;100476.38;4973061;28;708;-60
2021/11/07 11:42:53;;;;;;;;;;;;;;;15.61;76.79;100457.16;4975319;28;681;-60
2021/11/07 11:45:23;;;;;;;;;;;;;;;15.66;76.70;100446.31;4976763;28;968;-60
2021/11/07 11:48:08;;;;;;;;;;;;;;;15.73;76.53;100445.44;4976890;28;835;-60
2021/11/07 11:56:39;;;;;;;;;;;;;;;15.86;75.45;100423.34;4976695;28;701;-61
2021/11/07 11:59:24;;;;;;;;;;;;;;;16.10;75.30;100416.53;4976494;28;835;-61
2021/11/07 12:02:22;;;;;;;;;;;;;;;16.23;74.35;100427.06;4976672;28;792;-60
2021/11/07 12:05:55;;;;;;;;;;;;;;;15.99;74.27;100429.88;4970635;28;1094;-60
2021/11/07 12:08:21;;;;;;;;;;;;;;;15.67;74.96;100428.38;4965604;28;1347;-60
2021/11/07 12:10:59;;;;;;;;;;;;;;;15.54;75.66;100424.59;4976175;28;1944;-60
2021/11/07 12:13:32;;;;;;;;;;;;;;;15.51;75.87;100419.88;4976147;28;835;-60
2021/11/07 12:16:05;;;;;;;;;;;;;;;15.42;75.88;100411.25;4976264;28;847;-60
2021/11/07 12:18:32;;;;;;;;;;;;;;;15.34;76.08;100412.56;4976174;28;1222;-60
2021/11/07 12:20:58;;;;;;;;;;;;;;;15.29;76.45;100409.03;4976006;28;867;-60
2021/11/07 12:23:35;;;;;;;;;;;;;;;15.29;76.76;100397.13;4976075;28;831;-60
2021/11/07 12:26:31;;;;;;;;;;;;;;;15.42;76.73;100400.91;4976064;28;867;-60
2021/11/07 12:28:59;;;;;;;;;;;;;;;15.43;76.04;100396.91;4959150;28;1968;-60
2021/11/07 12:31:26;;;;;;;;;;;;;;;15.37;76.39;100386.69;4976175;28;831;-60
2021/11/07 12:34:03;;;;;;;;;;;;;;;15.34;76.24;100381.94;4975728;28;965;-60
2021/11/07 12:42:19;;;;;;;;;;;;;;;15.49;76.38;100361.00;4954802;28;1073;-60
2021/11/07 12:44:51;;;;;;;;;;;;;;;15.65;75.92;100361.13;4975663;28;859;-60
2021/11/07 12:47:23;;;;;;;;;;;;;;;15.66;75.97;100359.94;4975773;28;811;-60
2021/11/07 12:50:01;;;;;;;;;;;;;;;15.59;75.99;100357.25;4975725;28;1894;-60
2021/11/07 12:52:28;;;;;;;;;;;;;;;15.49;75.82;100372.13;4975572;28;815;-60
2021/11/07 12:54:55;;;;;;;;;;;;;;;15.43;76.23;100371.84;4974873;28;902;-60
2021/11/07 12:57:22;;;;;;;;;;;;;;;15.42;76.29;100366.69;4975497;28;796;-60
2021/11/07 12:59:57;;;;;;;;;;;;;;;15.51;75.99;100361.38;4975306;28;858;-60
2021/11/07 13:02:30;;;;;;;;;;;;;;;15.65;75.65;100366.72;4975513;28;831;-60
2021/11/07 13:05:07;;;;;;;;;;;;;;;15.85;75.38;100366.00;4975474;28;855;-60
2021/11/07 13:07:56;;;;;;;;;;;;;;;15.92;75.00;100368.69;4975447;28;838;-60
2021/11/07 13:10:33;;;;;;;;;;;;;;;15.84;75.02;100361.66;4975037;28;1890;-60
2021/11/07 13:13:09;;;;;;;;;;;;;;;15.80;74.99;100352.56;4975243;28;811;-60
2021/11/07 13:26:59;;;;;;;;;;;;;;;15.18;76.29;100349.94;4974973;28;650;-60
2021/11/07 13:29:36;;;;;;;;;;;;;;;15.11;76.36;100339.72;4974759;28;1999;-60
2021/11/07 13:34:55;;;;;;;;;;;;;;;15.24;76.67;100345.47;4974848;28;725;-60
2021/11/07 13:37:23;;;;;;;;;;;;;;;15.28;76.60;100343.44;4974842;28;876;-60
2021/11/07 13:39:49;;;;;;;;;;;;;;;15.23;76.41;100343.88;4974843;28;855;-60
2021/11/07 13:42:17;;;;;;;;;;;;;;;15.07;76.99;100336.19;4974885;28;867;-60
2021/11/07 13:44:48;;;;;;;;;;;;;;;14.97;76.97;100336.34;4974838;28;890;-60
2021/11/07 13:47:15;;;;;;;;;;;;;;;14.98;77.24;100329.56;4974663;28;808;-60
2021/11/07 13:49:50;;;;;;;;;;;;;;;15.04;77.40;100337.03;4974399;28;1943;-60
2021/11/07 13:52:18;;;;;;;;;;;;;;;15.10;77.02;100340.13;4974395;28;828;-60
2021/11/07 13:54:44;;;;;;;;;;;;;;;15.06;77.34;100331.03;4974426;28;855;-60
2021/11/07 13:57:11;;;;;;;;;;;;;;;15.00;77.53;100338.28;4974409;28;847;-60
2021/11/07 13:59:39;;;;;;;;;;;;;;;14.93;77.56;100333.59;4974210;28;882;-60
2021/11/07 14:02:32;;;;;;;;;;;;;;;14.92;77.74;100320.13;4974220;28;811;-60
2021/11/07 14:04:58;;;;;;;;;;;;;;;14.89;77.72;100325.31;4969835;28;1253;-60
2021/11/07 14:07:26;;;;;;;;;;;;;;;14.83;78.16;100323.41;4974108;28;859;-60
2021/11/07 14:10:04;;;;;;;;;;;;;;;14.80;78.19;100324.25;4974129;28;1907;-60
2021/11/07 14:12:33;;;;;;;;;;;;;;;14.77;78.14;100323.09;4974065;28;836;-60
2021/11/07 14:15:19;;;;;;;;;;;;;;;14.77;78.48;100319.53;4973987;28;838;-60
2021/11/07 14:17:47;;;;;;;;;;;;;;;14.74;78.55;100317.59;4974150;28;993;-60
2021/11/07 14:20:16;;;;;;;;;;;;;;;14.70;78.65;100318.44;4973735;28;1286;-60
2021/11/07 14:23:02;;;;;;;;;;;;;;;14.66;78.50;100317.69;4973812;28;823;-60
2021/11/07 14:25:28;;;;;;;;;;;;;;;14.63;78.95;100310.16;4973886;28;927;-60
2021/11/07 14:28:08;;;;;;;;;;;;;;;14.60;78.95;100302.66;4973845;28;890;-60
2021/11/07 14:30:40;;;;;;;;;;;;;;;14.54;79.26;100298.75;4974200;28;1977;-60
2021/11/07 14:33:20;;;;;;;;;;;;;;;14.45;79.40;100302.03;4973643;28;867;-60
2021/11/07 14:35:49;;;;;;;;;;;;;;;14.39;79.67;100302.91;4973576;28;902;-60
2021/11/07 14:38:29;;;;;;;;;;;;;;;14.29;79.84;100299.03;4973812;28;867;-60
2021/11/07 14:41:07;;;;;;;;;;;;;;;14.21;79.92;100289.22;4973436;28;917;-60
2021/11/07 14:43:55;;;;;;;;;;;;;;;14.08;80.14;100288.97;4973382;28;1093;-60
2021/11/07 14:46:31;;;;;;;;;;;;;;;13.95;80.50;100277.59;4973486;28;882;-60
2021/11/07 14:49:16;;;;;;;;;;;;;;;13.85;80.89;100278.53;4973341;28;1882;-60
2021/11/07 14:52:30;;;;;;;;;;;;;;;13.78;81.27;100275.81;4973439;28;823;-60
2021/11/07 14:57:37;;;;;;;;;;;;;;;13.77;81.42;100282.56;4973222;28;791;-60
2021/11/07 15:00:12;;;;;;;;;;;;;;;13.75;81.52;100274.66;4973182;28;991;-60
2021/11/07 15:02:47;;;;;;;;;;;;;;;13.72;81.56;100283.81;4973136;28;863;-60
2021/11/07 15:05:23;;;;;;;;;;;;;;;13.68;81.96;100283.84;4973485;28;863;-60
2021/11/07 15:07:57;;;;;;;;;;;;;;;13.66;82.09;100289.03;4972984;28;800;-60
2021/11/07 15:10:47;;;;;;;;;;;;;;;13.66;82.17;100291.03;4972937;28;1937;-60
2021/11/07 15:19:04;;;;;;;;;;;;;;;13.67;82.19;100281.47;4939223;29;1291;-59
2021/11/07 15:21:39;;;;;;;;;;;;;;;13.65;82.42;100283.88;4951567;29;947;-60
2021/11/07 15:24:11;;;;;;;;;;;;;;;13.65;82.56;100286.66;4951765;29;874;-60
2021/11/07 15:26:48;;;;;;;;;;;;;;;13.66;82.59;100280.69;4951435;29;1512;-60
2021/11/07 15:29:16;;;;;;;;;;;;;;;13.66;82.74;100285.47;4951413;29;1911;-60
2021/11/07 15:31:44;;;;;;;;;;;;;;;13.66;82.78;100286.25;4951756;29;823;-60
2021/11/07 15:34:12;;;;;;;;;;;;;;;13.66;83.02;100294.56;4951413;29;929;-60
2021/11/07 15:36:43;;;;;;;;;;;;;;;13.69;83.03;100290.19;4951497;29;977;-60
2021/11/07 15:39:11;;;;;;;;;;;;;;;13.69;83.09;100290.97;4951568;29;891;-59
2021/11/07 15:41:37;;;;;;;;;;;;;;;13.51;83.21;100259.81;4951584;29;931;-60
2021/11/07 15:44:05;;;;;;;;;;;;;;;13.68;83.22;100289.41;4951689;29;894;-60
2021/11/07 15:46:34;;;;;;;;;;;;;;;13.67;83.30;100290.59;4962631;28;929;-60
2021/11/07 15:49:01;;;;;;;;;;;;;;;13.66;83.37;100296.56;4992051;28;1945;-60
2021/11/07 15:51:48;;;;;;;;;;;;;;;13.63;83.40;100298.19;4974504;28;883;-60
2021/11/07 15:54:20;;;;;;;;;;;;;;;13.62;83.55;100293.81;4992006;28;880;-60
2021/11/07 15:56:56;;;;;;;;;;;;;;;13.62;83.46;100299.38;4991961;28;943;-60
2021/11/07 15:59:37;;;;;;;;;;;;;;;13.61;83.63;100297.00;4992109;28;820;-59
2021/11/07 16:04:48;;;;;;;;;;;;;;;13.58;83.75;100289.50;4992179;28;976;-60
2021/11/07 16:10:46;;;;;;;;;;;;;;;13.53;83.58;100287.97;4958603;28;1887;-59
2021/11/07 16:13:06;;;;;;;;;;;;;;;13.51;83.83;100297.91;4991194;28;1140;-60
2021/11/07 16:15:51;;;;;;;;;;;;;;;13.47;84.14;100298.72;4992311;28;1201;-60
2021/11/07 16:18:21;;;;;;;;;;;;;;;13.39;83.96;100302.75;4989327;28;1164;-60
2021/11/07 16:20:47;;;;;;;;;;;;;;;13.24;84.19;100299.28;4972815;28;863;-59
2021/11/07 16:23:14;;;;;;;;;;;;;;;13.07;84.65;100294.66;4972338;28;898;-59
2021/11/07 16:25:46;;;;;;;;;;;;;;;12.94;84.88;100288.00;4954922;28;1491;-59
2021/11/07 16:28:13;;;;;;;;;;;;;;;12.82;85.16;100283.72;4973074;28;859;-59
2021/11/07 16:30:39;;;;;;;;;;;;;;;12.73;85.45;100288.94;4975879;28;1982;-60
2021/11/07 16:33:10;;;;;;;;;;;;;;;12.65;85.74;100274.31;4975933;28;960;-60
2021/11/07 16:35:41;;;;;;;;;;;;;;;12.59;86.01;100281.50;4976044;28;901;-60
2021/11/07 16:38:20;;;;;;;;;;;;;;;12.51;86.40;100272.41;4975762;28;839;-60
2021/11/07 16:40:54;;;;;;;;;;;;;;;12.41;86.28;100274.03;4975877;28;812;-59
2021/11/07 16:43:20;;;;;;;;;;;;;;;12.31;86.33;100271.31;4975709;28;863;-60
2021/11/07 16:45:48;;;;;;;;;;;;;;;12.26;86.82;100269.75;4958321;28;1178;-59
2021/11/07 16:48:16;;;;;;;;;;;;;;;12.19;86.90;100275.34;4975733;28;898;-59
2021/11/07 16:50:53;;;;;;;;;;;;;;;12.13;87.06;100283.28;4975601;28;1932;-60
2021/11/07 16:54:02;;;;;;;;;;;;;;;12.06;87.44;100283.31;4975537;28;812;-59
2021/11/07 16:56:11;;;;;;;;;;;;;;;12.00;87.89;100282.91;4967209;28;1618;-59
2021/11/07 17:01:24;;;;;;;;;;;;;;;11.92;88.07;100283.34;4975441;28;685;-60
2021/11/07 17:03:54;;;;;;;;;;;;;;;11.89;88.67;100273.84;4975634;28;832;-59
2021/11/07 17:06:36;;;;;;;;;;;;;;;11.92;88.99;100277.78;4975252;28;835;-60
2021/11/07 17:11:35;;;;;;;;;;;;;;;12.07;89.34;100261.91;4975453;28;753;-60
2021/11/07 17:14:03;;;;;;;;;;;;;;;12.08;89.53;100256.00;4975244;28;827;-59
2021/11/07 17:16:45;;;;;;;;;;;;;;;12.01;89.34;100258.75;4975007;28;950;-60
2021/11/07 17:19:14;;;;;;;;;;;;;;;11.96;89.36;100262.75;4975230;28;1437;-59
2021/11/07 17:21:53;;;;;;;;;;;;;;;11.99;89.54;100259.19;4975317;28;820;-59
2021/11/07 17:26:59;;;;;;;;;;;;;;;11.91;89.40;100257.63;4974920;28;677;-59
2021/11/07 17:29:28;;;;;;;;;;;;;;;11.84;89.72;100252.06;4975084;28;1911;-60
2021/11/07 17:32:02;;;;;;;;;;;;;;;11.75;89.47;100260.78;4974880;28;894;-60
2021/11/07 17:37:00;;;;;;;;;;;;;;;11.59;90.15;100254.91;4974900;28;915;-60
2021/11/07 17:55:42;;;;;;;;;;;;;;;11.91;90.72;100221.63;4974402;28;693;-60
2021/11/07 17:58:08;;;;;;;;;;;;;;;11.94;90.72;100220.00;4974726;28;902;-60
2021/11/07 18:00:40;;;;;;;;;;;;;;;11.93;91.02;100215.69;4974453;28;784;-60
2021/11/07 18:03:07;;;;;;;;;;;;;;;11.96;91.09;100214.88;4974379;28;902;-60
2021/11/07 18:05:35;;;;;;;;;;;;;;;11.98;91.07;100213.28;4974008;28;946;-60
2021/11/07 18:10:43;;;;;;;;;;;;;;;11.99;91.17;100202.97;4973994;28;1957;-60
2021/11/07 18:13:10;;;;;;;;;;;;;;;11.97;91.14;100203.41;4974326;28;820;-59
2021/11/07 18:15:37;;;;;;;;;;;;;;;11.91;90.62;100198.69;4974220;28;800;-59
2021/11/07 18:18:03;;;;;;;;;;;;;;;11.78;90.82;100199.09;4974358;28;1142;-60
2021/11/07 18:20:29;;;;;;;;;;;;;;;11.65;90.93;100193.19;4992617;28;827;-60
2021/11/07 18:22:58;;;;;;;;;;;;;;;11.56;91.02;100181.72;4992447;28;834;-60
2021/11/07 18:25:28;;;;;;;;;;;;;;;11.53;91.11;100199.16;4992813;28;901;-60
2021/11/07 18:27:55;;;;;;;;;;;;;;;11.50;91.06;100188.06;4992528;28;834;-59
2021/11/07 18:30:23;;;;;;;;;;;;;;;11.48;90.67;100193.22;4992314;28;1914;-60
2021/11/07 18:32:52;;;;;;;;;;;;;;;11.42;91.18;100193.63;4992293;28;803;-60
2021/11/07 18:35:18;;;;;;;;;;;;;;;11.48;90.99;100191.25;4992260;28;855;-60
2021/11/07 18:37:49;;;;;;;;;;;;;;;11.56;91.24;100186.47;4992207;28;878;-59
2021/11/07 18:40:16;;;;;;;;;;;;;;;11.63;90.62;100183.72;4992315;28;811;-60
2021/11/07 18:42:43;;;;;;;;;;;;;;;11.69;90.98;100186.84;4992216;28;807;-60
2021/11/07 18:45:10;;;;;;;;;;;;;;;11.72;90.82;100188.81;4992172;28;929;-59
2021/11/07 18:47:36;;;;;;;;;;;;;;;11.73;90.98;100185.63;4992061;28;953;-59
2021/11/07 18:50:05;;;;;;;;;;;;;;;11.76;90.96;100189.59;4992062;28;1953;-60
2021/11/07 18:52:32;;;;;;;;;;;;;;;11.82;90.94;100193.50;4991341;28;890;-60
2021/11/07 18:54:59;;;;;;;;;;;;;;;11.85;91.00;100185.19;4992010;28;875;-60
2021/11/07 18:57:25;;;;;;;;;;;;;;;11.86;90.82;100185.97;4991957;28;812;-59
2021/11/07 18:59:53;;;;;;;;;;;;;;;11.91;90.71;100185.59;4991999;28;792;-60
2021/11/07 19:02:20;;;;;;;;;;;;;;;11.92;90.48;100178.88;4991837;28;910;-60
2021/11/07 19:04:47;;;;;;;;;;;;;;;11.91;90.56;100177.31;4991870;28;870;-60
2021/11/07 19:07:14;;;;;;;;;;;;;;;11.89;90.83;100178.91;4992013;28;831;-60
2021/11/07 19:09:41;;;;;;;;;;;;;;;11.89;90.37;100178.91;4974313;28;1898;-60
2021/11/07 19:12:08;;;;;;;;;;;;;;;11.87;90.64;100167.41;4974338;28;1426;-60
2021/11/07 19:14:39;;;;;;;;;;;;;;;11.83;90.70;100164.63;4991812;28;831;-60
2021/11/07 19:17:07;;;;;;;;;;;;;;;11.78;90.99;100157.53;4991419;28;915;-60
2021/11/07 19:19:33;;;;;;;;;;;;;;;11.77;90.82;100149.63;4879981;28;3249578;-59
2021/11/07 19:22:00;;;;;;;;;;;;;;;11.67;91.02;100142.97;4992360;28;1002;-60
2021/11/07 19:24:27;;;;;;;;;;;;;;;11.56;90.87;100129.13;4992355;28;871;-60
2021/11/07 19:26:53;;;;;;;;;;;;;;;11.43;91.28;100139.84;4992349;28;859;-60
2021/11/07 19:29:20;;;;;;;;;;;;;;;11.32;91.16;100149.38;4992106;28;1906;-59
2021/11/07 19:31:47;;;;;;;;;;;;;;;11.22;91.41;100148.22;4992343;28;807;-60
2021/11/07 19:34:13;;;;;;;;;;;;;;;11.19;91.53;100146.25;4992081;28;871;-60
2021/11/07 19:36:44;;;;;;;;;;;;;;;11.20;91.98;100154.16;4974694;28;1360;-59
2021/11/07 19:39:13;;;;;;;;;;;;;;;11.24;91.89;100160.47;4992177;28;949;-60
2021/11/07 19:41:45;;;;;;;;;;;;;;;11.31;92.36;100145.03;4992192;28;901;-60
2021/11/07 19:44:16;;;;;;;;;;;;;;;11.34;91.83;100141.47;4992155;28;820;-60
2021/11/07 19:46:47;;;;;;;;;;;;;;;11.32;92.03;100135.53;4992206;28;920;-59
2021/11/07 19:49:20;;;;;;;;;;;;;;;11.24;92.16;100130.03;4992088;28;1961;-59
2021/11/07 19:51:48;;;;;;;;;;;;;;;11.17;92.10;100129.25;4992063;28;925;-60
2021/11/07 19:54:15;;;;;;;;;;;;;;;11.09;92.65;100122.16;4992102;28;831;-60
2021/11/07 19:56:41;;;;;;;;;;;;;;;10.98;92.38;100117.44;4992042;28;883;-60
2021/11/07 19:59:11;;;;;;;;;;;;;;;10.89;92.50;100125.34;4991902;28;848;-59
2021/11/07 20:11:48;;;;;;;;;;;;;;;10.96;93.19;100143.91;4995797;28;1010;-59
2021/11/07 20:14:16;;;;;;;;;;;;;;;11.09;93.05;100136.78;4996369;28;803;-60
2021/11/07 20:16:43;;;;;;;;;;;;;;;11.27;93.13;100152.56;4996578;28;814;-59
2021/11/07 20:19:13;;;;;;;;;;;;;;;11.42;92.89;100162.41;4987036;28;1141;-60
2021/11/07 20:21:41;;;;;;;;;;;;;;;11.58;93.42;100150.88;4976259;28;886;-59
2021/11/07 20:24:07;;;;;;;;;;;;;;;11.70;93.24;100152.44;4976288;28;863;-60
2021/11/07 20:26:36;;;;;;;;;;;;;;;11.79;92.83;100141.72;4975979;28;844;-60
2021/11/07 20:29:08;;;;;;;;;;;;;;;11.89;93.11;100140.13;4975909;28;1981;-60
2021/11/07 20:31:35;;;;;;;;;;;;;;;11.95;92.84;100139.28;4975969;28;862;-60
2021/11/07 20:34:05;;;;;;;;;;;;;;;11.99;93.01;100134.53;4975777;28;811;-60
2021/11/07 20:36:33;;;;;;;;;;;;;;;12.03;92.59;100127.00;4975881;28;832;-60
2021/11/07 20:39:00;;;;;;;;;;;;;;;12.09;92.72;100132.09;4975761;28;874;-60
2021/11/07 20:41:27;;;;;;;;;;;;;;;12.13;92.98;100125.31;4975968;28;966;-60
2021/11/07 20:43:56;;;;;;;;;;;;;;;12.16;92.55;100127.31;4975835;28;895;-60
2021/11/07 20:49:04;;;;;;;;;;;;;;;12.19;92.56;100120.94;4958367;28;835;-60
2021/11/07 20:51:34;;;;;;;;;;;;;;;12.21;92.60;100120.53;4975610;28;875;-60
2021/11/07 20:54:14;;;;;;;;;;;;;;;12.22;92.69;100122.09;4975474;28;950;-59
2021/11/07 20:56:53;;;;;;;;;;;;;;;12.22;92.54;100122.09;4975706;28;831;-60
2021/11/07 21:01:53;;;;;;;;;;;;;;;12.21;92.70;100106.69;4975345;28;712;-60
2021/11/07 21:07:01;;;;;;;;;;;;;;;12.20;92.42;100100.34;4975290;28;685;-60
2021/11/07 21:09:37;;;;;;;;;;;;;;;12.21;92.92;100109.47;4975166;28;1965;-60
2021/11/07 21:18:00;;;;;;;;;;;;;;;12.18;92.85;100102.75;4975333;28;903;-60
2021/11/07 21:23:24;;;;;;;;;;;;;;;12.21;92.80;100099.16;4975369;28;622;-60
2021/11/07 21:26:13;;;;;;;;;;;;;;;12.23;92.81;100088.44;4975021;28;926;-60
2021/11/07 21:28:38;;;;;;;;;;;;;;;12.25;92.74;100079.75;4974305;28;1790;-60
2021/11/07 21:31:08;;;;;;;;;;;;;;;12.24;92.54;100069.84;4974817;28;1977;-60